createdAt,value
2023-01-06T05:18:50.726Z,68.21
2023-01-06T09:18:28.482Z,61.09
2023-01-06T09:20:30.072Z,60.84
2023-01-06T09:22:31.988Z,61.16
2023-01-06T09:24:33.658Z,61.31
2023-01-06T09:26:35.204Z,61.78
2023-01-06T09:28:36.833Z,61.85
2023-01-06T09:30:38.533Z,61.34
2023-01-06T09:32:40.116Z,61.17
2023-01-06T09:34:43.103Z,61.38
2023-01-06T09:36:45.213Z,61.72
2023-01-06T09:38:46.862Z,61.83
2023-01-06T09:41:04.390Z,61.88
2023-01-06T09:43:17.052Z,62.08
2023-01-06T09:45:20.792Z,62.40
2023-01-06T09:47:32.345Z,61.35
2023-01-06T09:49:42.104Z,61.72
2023-01-06T09:51:45.734Z,61.53
2023-01-06T09:53:54.561Z,61.05
2023-01-06T09:55:59.408Z,61.33
2023-01-06T09:58:05.873Z,61.21
2023-01-06T10:00:19.660Z,61.18
2023-01-06T10:02:26.397Z,60.55
2023-01-06T10:04:29.791Z,60.68
2023-01-06T10:06:36.465Z,60.60
2023-01-06T10:08:48.736Z,60.42
2023-01-06T10:11:02.574Z,61.00
2023-01-06T10:13:21.461Z,60.69
2023-01-06T10:15:33.441Z,60.68
2023-01-06T10:17:50.300Z,60.66
2023-01-06T10:20:02.918Z,60.28
2023-01-06T10:22:09.213Z,60.66
2023-01-06T10:24:34.047Z,61.00
2023-01-06T10:26:43.756Z,59.96
2023-01-06T10:28:47.733Z,60.07
2023-01-06T10:30:52.784Z,59.94
2023-01-06T10:32:54.400Z,59.90
2023-01-06T10:34:57.691Z,60.25
2023-01-06T10:37:06.597Z,59.60
2023-01-06T10:39:16.481Z,60.50
2023-01-06T10:41:26.679Z,59.55
2023-01-06T10:43:28.373Z,59.38
2023-01-06T10:45:34.263Z,60.02
2023-01-06T10:47:35.928Z,59.92
2023-01-06T10:49:37.829Z,59.73
2023-01-06T10:51:41.041Z,59.53
2023-01-06T10:53:43.045Z,59.88
2023-01-06T10:55:53.084Z,59.64
2023-01-06T10:57:59.959Z,59.08
2023-01-06T11:00:16.702Z,58.84
2023-01-06T11:02:24.642Z,58.94
2023-01-06T11:04:27.632Z,59.35
2023-01-06T11:06:30.461Z,58.81
2023-01-06T11:08:32.635Z,57.75
2023-01-06T11:10:40.338Z,57.52
2023-01-06T11:12:45.950Z,57.47
2023-01-06T11:14:55.666Z,57.47
2023-01-06T11:17:00.099Z,56.62
2023-01-06T11:19:04.789Z,56.67
2023-01-06T11:21:09.541Z,56.58
2023-01-06T11:23:20.985Z,55.95
2023-01-06T11:25:26.100Z,56.18
2023-01-06T11:27:27.773Z,56.50
2023-01-06T11:29:32.975Z,55.72
2023-01-06T11:31:34.760Z,55.93
2023-01-06T11:33:46.088Z,55.12
2023-01-06T11:35:48.643Z,55.54
2023-01-06T11:37:57.918Z,55.09
2023-01-06T11:40:10.309Z,54.62
2023-01-06T11:42:14.514Z,54.77
2023-01-06T11:44:20.668Z,54.56
2023-01-06T11:46:25.610Z,55.08
2023-01-06T11:48:31.203Z,54.63
2023-01-06T11:50:32.970Z,55.29
2023-01-06T11:52:34.609Z,54.57
2023-01-06T11:54:38.968Z,55.21
2023-01-06T11:56:40.689Z,55.11
2023-01-06T11:58:54.402Z,54.39
2023-01-06T12:01:01.893Z,54.66
2023-01-06T12:03:14.104Z,54.34
2023-01-06T12:05:25.490Z,54.76
2023-01-06T12:07:32.777Z,54.70
2023-01-06T12:09:38.793Z,53.37
2023-01-06T12:11:46.181Z,53.97
2023-01-06T12:14:08.320Z,53.75
2023-01-06T12:16:17.258Z,54.27
2023-01-06T12:18:24.084Z,53.37
2023-01-06T12:20:28.960Z,53.37
2023-01-06T12:22:37.109Z,53.53
2023-01-06T12:24:39.669Z,52.68
2023-01-06T12:26:43.386Z,53.43
2023-01-06T12:28:47.379Z,53.28
2023-01-06T12:30:54.790Z,53.07
2023-01-06T12:33:03.728Z,53.31
2023-01-06T12:35:14.238Z,53.23
2023-01-06T12:37:22.264Z,53.40
2023-01-06T12:39:33.307Z,53.45
2023-01-06T12:41:39.666Z,53.36
2023-01-06T12:43:49.691Z,53.52
2023-01-06T12:45:57.801Z,53.45
2023-01-06T12:48:07.815Z,53.95
2023-01-06T12:50:19.537Z,53.18
2023-01-06T12:52:26.746Z,52.94
2023-01-06T12:54:33.456Z,54.00
2023-01-06T12:56:52.161Z,54.10
2023-01-06T12:59:07.404Z,53.53
2023-01-06T13:01:16.409Z,53.96
2023-01-06T13:03:56.966Z,53.91
2023-01-06T13:06:24.957Z,53.55
2023-01-06T13:08:42.733Z,54.17
2023-01-06T13:10:48.568Z,53.82
2023-01-06T13:12:58.343Z,54.22
2023-01-06T13:15:07.714Z,53.83
2023-01-06T13:17:15.934Z,53.96
2023-01-06T13:19:30.678Z,53.91
2023-01-06T13:21:37.088Z,53.63
2023-01-06T13:28:15.421Z,53.48
2023-01-06T13:30:37.689Z,53.23
2023-01-06T13:32:52.495Z,53.53
2023-01-06T13:35:13.583Z,53.70
2023-01-06T13:37:35.107Z,53.88
2023-01-06T13:39:39.353Z,54.47
2023-01-06T13:41:45.911Z,53.83
2023-01-06T13:43:53.775Z,53.59
2023-01-06T13:45:58.916Z,53.79
2023-01-06T13:48:02.728Z,53.89
2023-01-06T13:50:05.660Z,54.26
2023-01-06T13:52:12.717Z,54.62
2023-01-06T13:54:51.427Z,54.37
2023-01-06T13:57:34.912Z,54.23
2023-01-06T13:59:48.777Z,54.31
2023-01-06T14:01:51.898Z,53.47
2023-01-06T17:47:49.219Z,58.72
2023-01-06T17:49:53.546Z,58.87
2023-01-06T17:51:56.102Z,58.54
2023-01-06T17:53:58.957Z,58.62
2023-01-06T17:56:02.367Z,58.63
2023-01-06T17:58:10.071Z,58.46
2023-01-06T18:00:21.613Z,58.56
2023-01-06T18:02:39.378Z,58.47
2023-01-06T18:04:42.657Z,58.74
2023-01-06T18:06:46.113Z,58.77
2023-01-06T18:08:49.986Z,58.59
2023-01-06T18:10:53.821Z,58.83
2023-01-06T18:12:56.778Z,58.87
2023-01-06T18:14:58.815Z,58.93
2023-01-06T18:17:15.835Z,58.70
2023-01-06T18:19:27.586Z,58.73
2023-01-06T18:21:36.727Z,58.86
2023-01-06T18:23:38.582Z,58.69
2023-01-06T18:25:41.750Z,58.84
2023-01-06T18:27:47.297Z,58.80
2023-01-06T18:29:56.492Z,58.70
2023-01-06T18:32:21.978Z,58.55
2023-01-06T18:34:41.339Z,58.63
2023-01-06T18:36:49.661Z,58.93
2023-01-06T18:38:51.770Z,58.76
2023-01-06T18:40:53.783Z,58.77
2023-01-06T18:43:01.946Z,58.39
2023-01-06T18:45:21.088Z,58.51
2023-01-06T18:47:23.790Z,58.58
2023-01-06T18:49:34.958Z,58.49
2023-01-06T18:51:43.828Z,58.51
2023-01-06T18:53:49.109Z,58.15
2023-01-06T18:55:53.129Z,58.51
2023-01-06T18:57:59.298Z,58.59
2023-01-06T19:00:38.277Z,58.33
2023-01-06T19:02:40.355Z,58.24
2023-01-06T19:04:42.356Z,58.31
2023-01-06T19:06:46.659Z,58.89
2023-01-06T19:08:50.282Z,58.88
2023-01-06T19:10:53.253Z,58.95
2023-01-06T19:12:59.133Z,58.54
2023-01-06T19:15:15.449Z,58.37
2023-01-06T19:17:22.372Z,58.37
2023-01-06T19:19:33.945Z,58.20
2023-01-06T19:21:46.123Z,58.18
2023-01-06T19:23:55.082Z,57.85
2023-01-06T19:26:04.800Z,57.64
2023-01-06T19:28:15.757Z,58.10
2023-01-06T19:30:38.418Z,57.74
2023-01-06T19:32:40.524Z,57.97
2023-01-06T19:34:42.587Z,57.72
2023-01-06T19:36:45.627Z,57.69
2023-01-06T19:38:49.306Z,57.34
2023-01-06T19:40:52.208Z,57.52
2023-01-06T19:42:57.971Z,57.07
2023-01-06T19:45:08.789Z,57.35
2023-01-06T19:47:17.453Z,57.30
2023-01-06T19:51:56.338Z,57.31
2023-01-06T19:54:17.613Z,57.26
2023-01-06T19:59:34.779Z,57.02
2023-01-06T20:01:45.487Z,56.92
2023-01-06T20:04:17.410Z,56.73
2023-01-06T20:06:28.098Z,56.70
2023-01-06T20:09:14.132Z,56.64
2023-01-06T20:11:27.931Z,56.41
2023-01-06T20:13:34.050Z,56.79
2023-01-06T20:15:45.546Z,57.15
2023-01-06T20:18:24.116Z,57.08
2023-01-06T23:00:36.754Z,56.45
2023-01-06T23:02:38.842Z,56.46
2023-01-06T23:04:40.748Z,56.12
2023-01-06T23:06:42.707Z,56.47
2023-01-06T23:08:59.262Z,56.59
2023-01-06T23:11:03.674Z,56.93
2023-01-06T23:13:05.940Z,56.60
2023-01-06T23:15:09.104Z,56.38
2023-01-06T23:17:12.879Z,56.41
2023-01-06T23:19:16.587Z,56.41
2023-01-06T23:21:21.829Z,56.56
2023-01-06T23:23:24.017Z,56.55
2023-01-06T23:25:25.831Z,56.41
2023-01-06T23:27:30.451Z,56.05
2023-01-06T23:29:33.183Z,56.12
2023-01-06T23:31:37.639Z,56.10
2023-01-06T23:33:42.083Z,56.19
2023-01-06T23:35:43.849Z,56.34
2023-01-06T23:37:45.530Z,56.16
2023-01-06T23:39:47.234Z,55.85
2023-01-06T23:41:48.960Z,56.21
2023-01-06T23:43:51.688Z,56.06
2023-01-06T23:45:53.389Z,56.16
2023-01-06T23:47:55.057Z,55.99
2023-01-06T23:49:58.683Z,55.98
2023-01-06T23:52:00.372Z,56.08
2023-01-06T23:54:03.707Z,56.15
2023-01-06T23:56:07.805Z,55.87
2023-01-06T23:58:09.530Z,56.28
